Time;durP1;ratioP1;P1;durP2;ratioP2;P2;SDS_P1;SDS_P2;PMS_P1;PMS_P2;Temp;Humidity;BMP_temperature;BMP_pressure;BME280_temperature;BME280_humidity;BME280_pressure;Samples;Min_cycle;Max_cycle;Signal;HPM_P1;HPM_P2
2023/06/04 00:01:11;;;;;;;1999.90;999.90;;;14.80;89.50;;;;;;6313227;22;20004;-74
2023/06/04 00:03:36;;;;;;;1999.90;999.90;;;14.80;89.90;;;;;;6286047;22;20007;-75
2023/06/04 00:06:02;;;;;;;1999.90;999.90;;;14.70;90.00;;;;;;6314973;22;20003;-74
2023/06/04 00:08:27;;;;;;;1999.90;999.90;;;14.70;88.80;;;;;;6314961;22;20011;-74
2023/06/04 00:10:53;;;;;;;1999.90;999.90;;;14.80;88.60;;;;;;6314863;22;20008;-74
2023/06/04 00:13:18;;;;;;;1999.90;999.90;;;14.80;88.50;;;;;;6286971;22;20083;-74
2023/06/04 00:15:44;;;;;;;1999.90;999.90;;;14.70;89.20;;;;;;6314913;22;20071;-74
2023/06/04 00:18:10;;;;;;;1999.90;999.90;;;14.70;88.90;;;;;;6314822;22;20016;-74
2023/06/04 00:20:36;;;;;;;1999.90;999.90;;;14.70;90.20;;;;;;6314855;22;20027;-74
2023/06/04 00:23:02;;;;;;;1999.90;999.90;;;14.60;88.80;;;;;;6314361;22;20011;-74
2023/06/04 00:25:27;;;;;;;1999.90;999.90;;;14.60;88.10;;;;;;6314882;22;20003;-74
2023/06/04 00:27:53;;;;;;;1999.90;999.90;;;14.60;88.80;;;;;;6339413;22;20007;-75
2023/06/04 00:30:19;;;;;;;1999.90;999.90;;;14.50;88.10;;;;;;6314859;22;20102;-74
2023/06/04 00:32:46;;;;;;;1999.90;999.90;;;14.50;90.00;;;;;;6313953;22;20044;-74
2023/06/04 00:35:12;;;;;;;1999.90;999.90;;;14.40;88.80;;;;;;6314961;22;20027;-74
2023/06/04 00:37:38;;;;;;;1999.90;999.90;;;14.30;88.90;;;;;;6314588;22;20015;-74
2023/06/04 00:40:05;;;;;;;1999.90;999.90;;;14.20;87.90;;;;;;6314726;22;20008;-74
2023/06/04 00:42:31;;;;;;;1999.90;999.90;;;14.10;89.40;;;;;;6314250;22;20011;-74
2023/06/04 00:44:57;;;;;;;1999.90;999.90;;;14.10;89.60;;;;;;6314693;22;20012;-74
2023/06/04 00:47:23;;;;;;;1999.90;999.90;;;14.00;89.50;;;;;;6314739;22;20087;-74
2023/06/04 00:49:49;;;;;;;1999.90;999.90;;;13.90;89.80;;;;;;6314632;22;20078;-75
2023/06/04 00:52:15;;;;;;;1999.90;999.90;;;13.90;89.80;;;;;;6313678;22;20018;-74
2023/06/04 00:54:41;;;;;;;1999.90;999.90;;;13.80;89.50;;;;;;6315453;22;20007;-74
2023/06/04 00:57:08;;;;;;;1999.90;999.90;;;13.70;90.00;;;;;;6314768;22;20470;-75
2023/06/04 00:59:36;;;;;;;1999.90;999.90;;;13.60;90.10;;;;;;6314784;22;20010;-74
2023/06/04 01:02:09;;;;;;;1999.90;999.90;;;13.50;90.20;;;;;;6314285;22;20008;-74
2023/06/04 01:04:44;;;;;;;1999.90;999.90;;;13.50;90.20;;;;;;6314790;22;20061;-74
2023/06/04 01:07:12;;;;;;;1999.90;999.90;;;13.40;90.60;;;;;;6314824;22;20007;-74
2023/06/04 01:09:38;;;;;;;1999.90;999.90;;;13.30;90.70;;;;;;6314775;22;20085;-74
2023/06/04 01:12:05;;;;;;;1999.90;999.90;;;13.30;90.10;;;;;;6286484;22;20023;-75
2023/06/04 01:14:33;;;;;;;1999.90;999.90;;;13.30;89.90;;;;;;6286733;22;20012;-74
2023/06/04 01:17:18;;;;;;;1999.90;999.90;;;13.30;90.80;;;;;;6314680;22;20011;-74
2023/06/04 01:20:24;;;;;;;1999.90;999.90;;;13.20;90.60;;;;;;6314734;22;20517;-74
2023/06/04 01:23:01;;;;;;;1999.90;999.90;;;13.10;90.30;;;;;;6286756;22;20007;-74
2023/06/04 01:25:39;;;;;;;1999.90;999.90;;;13.10;90.50;;;;;;6314346;22;20027;-74
2023/06/04 01:28:07;;;;;;;1999.90;999.90;;;13.10;89.90;;;;;;6314090;22;20090;-74
2023/06/04 01:30:36;;;;;;;1999.90;999.90;;;13.20;90.10;;;;;;6314469;22;20000;-74
2023/06/04 01:33:03;;;;;;;1999.90;999.90;;;13.20;89.00;;;;;;6314029;22;20019;-74
2023/06/04 01:35:32;;;;;;;1999.90;999.90;;;13.20;88.90;;;;;;6314644;22;20000;-74
2023/06/04 01:37:58;;;;;;;1999.90;999.90;;;13.10;88.30;;;;;;6314215;22;20012;-74
2023/06/04 01:40:24;;;;;;;1999.90;999.90;;;13.20;88.00;;;;;;6314569;22;20007;-74
2023/06/04 01:42:50;;;;;;;1999.90;999.90;;;13.10;88.80;;;;;;6314205;22;20004;-74
2023/06/04 01:45:16;;;;;;;1999.90;999.90;;;13.10;88.00;;;;;;6314573;22;20004;-75
2023/06/04 01:47:41;;;;;;;1999.90;999.90;;;13.10;88.70;;;;;;6314556;22;20012;-74
2023/06/04 01:50:09;;;;;;;1999.90;999.90;;;13.10;88.30;;;;;;6314657;22;20014;-74
2023/06/04 01:52:38;;;;;;;1999.90;999.90;;;13.10;89.60;;;;;;6313476;22;20477;-74
2023/06/04 01:55:05;;;;;;;1999.90;999.90;;;13.00;89.20;;;;;;6314524;22;20446;-74
2023/06/04 01:57:30;;;;;;;1999.90;999.90;;;13.10;88.00;;;;;;6314649;22;20007;-74
2023/06/04 01:59:56;;;;;;;1999.90;999.90;;;13.10;88.00;;;;;;6314417;22;20004;-74
2023/06/04 02:02:22;;;;;;;1999.90;999.90;;;13.10;87.50;;;;;;6286474;22;20079;-74
2023/06/04 02:04:47;;;;;;;1999.90;999.90;;;13.10;87.70;;;;;;6314539;22;20071;-74
2023/06/04 02:07:20;;;;;;;1999.90;999.90;;;13.10;87.50;;;;;;6314473;22;20008;-74
2023/06/04 02:09:47;;;;;;;1999.90;999.90;;;13.10;87.80;;;;;;6314498;22;20004;-74
2023/06/04 02:12:12;;;;;;;1999.90;999.90;;;13.00;88.30;;;;;;6313651;22;20014;-74
2023/06/04 02:14:38;;;;;;;1999.90;999.90;;;13.00;88.30;;;;;;6314358;22;20030;-74
2023/06/04 02:17:04;;;;;;;1999.90;999.90;;;12.90;88.70;;;;;;6314284;22;20038;-74
2023/06/04 02:19:33;;;;;;;1999.90;999.90;;;13.00;88.20;;;;;;6314306;22;20006;-74
2023/06/04 02:21:59;;;;;;;1999.90;999.90;;;12.90;88.00;;;;;;6286159;22;20011;-74
2023/06/04 02:24:24;;;;;;;1999.90;999.90;;;12.90;88.30;;;;;;6314471;22;20008;-74
2023/06/04 02:26:50;;;;;;;1999.90;999.90;;;12.90;88.40;;;;;;6313531;22;20016;-74
2023/06/04 02:29:15;;;;;;;1999.90;999.90;;;12.90;88.60;;;;;;6314290;22;20006;-74
2023/06/04 02:31:41;;;;;;;1999.90;999.90;;;12.80;88.50;;;;;;6313680;22;20017;-74
2023/06/04 02:34:06;;;;;;;1999.90;999.90;;;12.80;88.00;;;;;;6314236;22;20371;-74
2023/06/04 02:36:32;;;;;;;1999.90;999.90;;;12.80;88.50;;;;;;6314298;22;20003;-74
2023/06/04 02:38:57;;;;;;;1999.90;999.90;;;12.80;90.00;;;;;;6314269;22;20008;-74
2023/06/04 02:41:23;;;;;;;1999.90;999.90;;;12.70;89.10;;;;;;6313920;22;20008;-74
2023/06/04 02:43:49;;;;;;;1999.90;999.90;;;12.70;88.80;;;;;;6313862;22;20053;-74
2023/06/04 02:46:15;;;;;;;1999.90;999.90;;;12.70;89.10;;;;;;6338718;22;20018;-74
2023/06/04 02:48:40;;;;;;;1999.90;999.90;;;12.70;89.60;;;;;;6314294;22;20004;-74
2023/06/04 02:51:09;;;;;;;1999.90;999.90;;;12.70;89.30;;;;;;6313977;22;20451;-74
2023/06/04 02:53:35;;;;;;;1999.90;999.90;;;12.60;89.00;;;;;;6313871;22;20042;-74
2023/06/04 02:56:01;;;;;;;1999.90;999.90;;;12.60;89.10;;;;;;6314120;22;20443;-74
2023/06/04 02:58:28;;;;;;;1999.90;999.90;;;12.60;89.80;;;;;;6314134;22;20019;-74
2023/06/04 03:00:54;;;;;;;1999.90;999.90;;;12.60;88.90;;;;;;6286250;22;20004;-76
2023/06/04 03:03:20;;;;;;;1999.90;999.90;;;12.50;89.30;;;;;;6314104;22;20038;-74
2023/06/04 03:05:46;;;;;;;1999.90;999.90;;;12.60;89.40;;;;;;6314024;22;20062;-74
2023/06/04 03:08:11;;;;;;;1999.90;999.90;;;12.50;89.40;;;;;;6314033;22;20003;-74
2023/06/04 03:10:37;;;;;;;1999.90;999.90;;;12.50;88.90;;;;;;6313948;22;20014;-74
2023/06/04 03:13:03;;;;;;;1999.90;999.90;;;12.50;89.40;;;;;;6313430;22;20053;-74
2023/06/04 03:15:29;;;;;;;1999.90;999.90;;;12.50;89.90;;;;;;6286264;22;20012;-73
2023/06/04 03:17:55;;;;;;;1999.90;999.90;;;12.50;89.80;;;;;;6313928;22;20050;-73
2023/06/04 03:20:23;;;;;;;1999.90;999.90;;;12.50;89.00;;;;;;6313903;22;20454;-73
2023/06/04 03:22:50;;;;;;;1999.90;999.90;;;12.40;89.20;;;;;;6285602;22;20150;-74
2023/06/04 03:25:15;;;;;;;1999.90;999.90;;;12.50;89.10;;;;;;6286210;22;20352;-74
2023/06/04 03:27:41;;;;;;;1999.90;999.90;;;12.40;89.80;;;;;;6313907;22;20004;-74
2023/06/04 03:30:07;;;;;;;1999.90;999.90;;;12.40;90.00;;;;;;6313904;22;20054;-74
2023/06/04 03:32:33;;;;;;;1999.90;999.90;;;12.40;90.60;;;;;;6313108;22;20119;-74
2023/06/04 03:34:59;;;;;;;1999.90;999.90;;;12.40;90.20;;;;;;6313826;22;20033;-74
2023/06/04 03:37:25;;;;;;;1999.90;999.90;;;12.40;90.00;;;;;;6313980;22;20088;-74
2023/06/04 03:39:51;;;;;;;1999.90;999.90;;;12.30;90.40;;;;;;6315142;22;20011;-74
2023/06/04 03:42:16;;;;;;;1999.90;999.90;;;12.30;91.20;;;;;;6314669;22;20033;-74
2023/06/04 03:44:42;;;;;;;1999.90;999.90;;;12.30;91.60;;;;;;6314875;22;20008;-75
2023/06/04 03:47:07;;;;;;;1999.90;999.90;;;12.20;91.20;;;;;;6315097;22;20386;-74
2023/06/04 03:49:33;;;;;;;1999.90;999.90;;;12.20;91.60;;;;;;6287455;22;20014;-74
2023/06/04 03:51:58;;;;;;;1999.90;999.90;;;12.20;91.50;;;;;;6314126;22;20011;-73
2023/06/04 03:54:24;;;;;;;1999.90;999.90;;;12.20;91.50;;;;;;6315080;22;20012;-74
2023/06/04 03:56:49;;;;;;;1999.90;999.90;;;12.20;92.30;;;;;;6314847;22;20004;-74
2023/06/04 03:59:15;;;;;;;1999.90;999.90;;;12.20;92.10;;;;;;6287437;22;20015;-75
2023/06/04 04:01:42;;;;;;;1999.90;999.90;;;12.10;92.50;;;;;;6314599;22;20012;-74
2023/06/04 04:04:07;;;;;;;1999.90;999.90;;;12.10;93.40;;;;;;6314966;22;20455;-74
2023/06/04 04:06:33;;;;;;;1999.90;999.90;;;12.10;94.10;;;;;;6315033;22;20014;-74
2023/06/04 04:08:59;;;;;;;1999.90;999.90;;;12.10;93.00;;;;;;6287349;22;20056;-74
2023/06/04 04:11:25;;;;;;;1999.90;999.90;;;12.00;93.40;;;;;;6314604;22;20015;-74
2023/06/04 04:13:51;;;;;;;1999.90;999.90;;;12.00;93.40;;;;;;6314811;22;20086;-74
2023/06/04 04:16:16;;;;;;;1999.90;999.90;;;12.00;93.30;;;;;;6287529;22;20031;-75
2023/06/04 04:18:43;;;;;;;1999.90;999.90;;;12.00;93.60;;;;;;6315102;22;20014;-74
2023/06/04 04:21:10;;;;;;;1999.90;999.90;;;12.10;93.50;;;;;;6314626;22;20422;-74
2023/06/04 04:23:37;;;;;;;1999.90;999.90;;;12.10;93.20;;;;;;6314719;22;20098;-74
2023/06/04 04:26:03;;;;;;;1999.90;999.90;;;12.10;93.80;;;;;;6315040;22;20007;-74
2023/06/04 04:28:29;;;;;;;1999.90;999.90;;;12.10;92.50;;;;;;6315036;22;20061;-74
2023/06/04 04:31:02;;;;;;;1999.90;999.90;;;12.20;91.30;;;;;;6314781;22;19999;-74
2023/06/04 04:33:32;;;;;;;1999.90;999.90;;;12.20;91.10;;;;;;6314545;22;20370;-74
2023/06/04 04:35:59;;;;;;;1999.90;999.90;;;12.40;91.10;;;;;;6314972;22;20054;-74
2023/06/04 04:38:25;;;;;;;1999.90;999.90;;;12.50;91.70;;;;;;6314881;22;20035;-74
2023/06/04 04:40:52;;;;;;;1999.90;999.90;;;12.60;91.50;;;;;;6314802;22;20003;-74
2023/06/04 04:43:31;;;;;;;1999.90;999.90;;;12.80;90.70;;;;;;6286761;22;20016;-74
2023/06/04 04:45:56;;;;;;;1999.90;999.90;;;13.00;89.60;;;;;;6314831;22;20000;-74
2023/06/04 04:48:22;;;;;;;1999.90;999.90;;;13.10;89.70;;;;;;6314770;22;20011;-74
2023/06/04 04:50:47;;;;;;;1999.90;999.90;;;13.20;90.40;;;;;;6314269;22;20008;-74
2023/06/04 04:53:13;;;;;;;1999.90;999.90;;;13.30;89.80;;;;;;6286529;22;20355;-74
2023/06/04 04:55:38;;;;;;;1999.90;999.90;;;13.40;87.70;;;;;;6314786;22;20003;-74
2023/06/04 04:58:04;;;;;;;1999.90;999.90;;;13.40;89.20;;;;;;6287266;22;20014;-74
2023/06/04 05:00:30;;;;;;;1999.90;999.90;;;13.40;89.10;;;;;;6314846;22;20065;-74
2023/06/04 05:02:55;;;;;;;1999.90;999.90;;;13.40;89.80;;;;;;6314404;22;20450;-73
2023/06/04 05:05:21;;;;;;;1999.90;999.90;;;13.40;88.00;;;;;;6314771;22;20003;-74
2023/06/04 05:07:47;;;;;;;1999.90;999.90;;;13.40;87.70;;;;;;6314746;22;20012;-73
2023/06/04 05:10:12;;;;;;;1999.90;999.90;;;13.40;87.10;;;;;;6314673;22;20006;-74
2023/06/04 05:12:38;;;;;;;1999.90;999.90;;;13.50;86.90;;;;;;6286607;22;20018;-74
2023/06/04 05:15:04;;;;;;;1999.90;999.90;;;13.50;86.90;;;;;;6314688;22;20026;-74
2023/06/04 05:17:30;;;;;;;1999.90;999.90;;;13.40;87.10;;;;;;6314634;22;20414;-74
2023/06/04 05:20:11;;;;;;;1999.90;999.90;;;13.50;87.70;;;;;;6314683;22;20004;-74
2023/06/04 05:22:37;;;;;;;1999.90;999.90;;;13.60;87.70;;;;;;6314271;22;20018;-74
2023/06/04 05:25:03;;;;;;;1999.90;999.90;;;13.70;88.00;;;;;;6314660;22;20035;-73
2023/06/04 05:27:31;;;;;;;1999.90;999.90;;;13.90;87.30;;;;;;6314642;22;20003;-74
2023/06/04 05:29:57;;;;;;;1999.90;999.90;;;14.00;86.00;;;;;;6314693;22;20000;-74
2023/06/04 05:32:22;;;;;;;1999.90;999.90;;;14.20;85.70;;;;;;6314027;22;20020;-74
2023/06/04 05:34:48;;;;;;;1999.90;999.90;;;14.40;84.60;;;;;;6314475;22;20000;-74
2023/06/04 05:37:16;;;;;;;1999.90;999.90;;;14.50;84.40;;;;;;6314513;22;20075;-74
2023/06/04 05:39:42;;;;;;;1999.90;999.90;;;14.60;85.00;;;;;;6314643;22;20065;-74
2023/06/04 05:42:08;;;;;;;1999.90;999.90;;;14.70;84.20;;;;;;6314058;22;20027;-73
2023/06/04 05:44:34;;;;;;;1999.90;999.90;;;14.90;84.70;;;;;;6314580;22;20004;-74
2023/06/04 05:46:59;;;;;;;1999.90;999.90;;;14.90;83.00;;;;;;6314513;22;20057;-74
2023/06/04 05:49:26;;;;;;;1999.90;999.90;;;15.00;83.00;;;;;;6314574;22;20011;-75
2023/06/04 05:51:51;;;;;;;1999.90;999.90;;;14.80;83.40;;;;;;6313710;22;20470;-74
2023/06/04 05:54:17;;;;;;;1999.90;999.90;;;14.80;84.10;;;;;;6286737;22;20012;-74
2023/06/04 05:56:42;;;;;;;1999.90;999.90;;;14.90;82.80;;;;;;6314584;22;20007;-74
2023/06/04 05:59:08;;;;;;;1999.90;999.90;;;14.80;84.40;;;;;;6314279;22;20008;-74
2023/06/04 06:01:34;;;;;;;1999.90;999.90;;;14.70;83.30;;;;;;6314162;22;20033;-74
2023/06/04 06:04:00;;;;;;;1999.90;999.90;;;14.70;82.20;;;;;;6314464;22;20510;-75
2023/06/04 06:06:26;;;;;;;1999.90;999.90;;;14.70;83.50;;;;;;6286778;22;20083;-74
2023/06/04 06:08:52;;;;;;;1999.90;999.90;;;14.80;83.60;;;;;;6314374;22;20087;-74
2023/06/04 06:11:18;;;;;;;1999.90;999.90;;;14.80;83.10;;;;;;6314123;22;20015;-73
2023/06/04 06:13:43;;;;;;;1999.90;999.90;;;14.80;83.20;;;;;;6314085;22;20015;-73
2023/06/04 06:16:09;;;;;;;1999.90;999.90;;;14.90;83.20;;;;;;6314437;22;20344;-74
2023/06/04 06:18:35;;;;;;;1999.90;999.90;;;15.00;83.60;;;;;;6314320;22;20018;-73
2023/06/04 06:21:00;;;;;;;1999.90;999.90;;;15.20;83.50;;;;;;6314172;22;20008;-73
2023/06/04 06:23:26;;;;;;;1999.90;999.90;;;15.20;83.20;;;;;;6313842;22;20443;-73
2023/06/04 06:25:51;;;;;;;1999.90;999.90;;;15.30;82.40;;;;;;6314326;22;20427;-74
2023/06/04 06:28:18;;;;;;;1999.90;999.90;;;15.40;82.10;;;;;;6314357;22;20378;-73
2023/06/04 06:30:44;;;;;;;1999.90;999.90;;;15.40;83.20;;;;;;6314285;22;20019;-74
2023/06/04 06:33:10;;;;;;;1999.90;999.90;;;15.50;82.60;;;;;;6313446;22;20442;-73
2023/06/04 06:35:35;;;;;;;1999.90;999.90;;;15.60;83.30;;;;;;6314483;22;20011;-75
2023/06/04 06:38:01;;;;;;;1999.90;999.90;;;15.60;83.20;;;;;;6314511;22;20015;-76
2023/06/04 06:40:26;;;;;;;1999.90;999.90;;;15.70;82.80;;;;;;6314283;22;20082;-75
2023/06/04 06:42:52;;;;;;;1999.90;999.90;;;15.70;83.00;;;;;;6313593;22;20000;-73
2023/06/04 06:45:21;;;;;;;1999.90;999.90;;;15.90;83.30;;;;;;6314266;22;20106;-72
2023/06/04 06:47:46;;;;;;;1999.90;999.90;;;15.90;81.30;;;;;;6314317;22;20077;-73
2023/06/04 06:50:12;;;;;;;1999.90;999.90;;;15.90;81.00;;;;;;6314538;22;20494;-73
2023/06/04 06:52:38;;;;;;;1999.90;999.90;;;16.10;81.80;;;;;;6313348;22;20391;-73
2023/06/04 06:55:04;;;;;;;1999.90;999.90;;;16.10;82.60;;;;;;6315128;22;20010;-74
2023/06/04 06:57:30;;;;;;;1999.90;999.90;;;16.30;81.00;;;;;;6314244;22;20444;-71
2023/06/04 06:59:55;;;;;;;1999.90;999.90;;;16.40;81.60;;;;;;6313747;22;20004;-74
2023/06/04 07:02:22;;;;;;;1999.90;999.90;;;16.60;81.30;;;;;;6313474;22;20008;-72
2023/06/04 07:04:47;;;;;;;1999.90;999.90;;;17.00;80.30;;;;;;6314325;22;20006;-75
2023/06/04 07:07:13;;;;;;;1999.90;999.90;;;17.10;79.70;;;;;;6314257;22;20012;-74
2023/06/04 07:09:38;;;;;;;1999.90;999.90;;;17.30;79.10;;;;;;6314338;22;20030;-74
2023/06/04 07:12:04;;;;;;;1999.90;999.90;;;17.30;76.80;;;;;;6313109;22;20111;-72
2023/06/04 07:14:30;;;;;;;1999.90;999.90;;;17.50;77.10;;;;;;6314436;22;20515;-73
2023/06/04 07:16:55;;;;;;;1999.90;999.90;;;17.80;77.00;;;;;;6314381;22;20087;-78
2023/06/04 07:19:21;;;;;;;1999.90;999.90;;;18.00;75.00;;;;;;6314154;22;20004;-74
2023/06/04 07:21:46;;;;;;;1999.90;999.90;;;18.20;73.90;;;;;;6313838;22;20008;-75
2023/06/04 07:24:12;;;;;;;1999.90;999.90;;;18.40;75.00;;;;;;6314109;22;20030;-72
2023/06/04 07:26:37;;;;;;;1999.90;999.90;;;18.70;75.50;;;;;;6314363;22;20015;-76
2023/06/04 07:29:03;;;;;;;1999.90;999.90;;;18.90;73.90;;;;;;6315228;22;20028;-73
2023/06/04 07:31:28;;;;;;;1999.90;999.90;;;19.00;71.60;;;;;;6313536;22;20015;-74
2023/06/04 07:33:54;;;;;;;1999.90;999.90;;;19.00;71.30;;;;;;6314004;22;20015;-75
2023/06/04 07:36:20;;;;;;;1999.90;999.90;;;19.20;72.80;;;;;;6314394;22;20022;-76
2023/06/04 07:38:46;;;;;;;1999.90;999.90;;;19.40;71.10;;;;;;6314081;22;20432;-74
2023/06/04 07:41:11;;;;;;;1999.90;999.90;;;19.70;72.20;;;;;;6313771;22;20007;-75
2023/06/04 07:43:37;;;;;;;1999.90;999.90;;;19.90;70.80;;;;;;6286339;22;20060;-73
2023/06/04 07:46:03;;;;;;;1999.90;999.90;;;20.20;69.90;;;;;;6314203;22;19996;-74
2023/06/04 07:48:32;;;;;;;1999.90;999.90;;;20.50;68.60;;;;;;6314077;22;20463;-73
2023/06/04 07:51:01;;;;;;;1999.90;999.90;;;20.30;67.20;;;;;;6314200;22;20004;-75
2023/06/04 07:53:27;;;;;;;1999.90;999.90;;;20.60;69.40;;;;;;6285926;22;20020;-75
2023/06/04 07:55:54;;;;;;;1999.90;999.90;;;20.90;69.10;;;;;;6314362;22;20007;-74
2023/06/04 07:58:19;;;;;;;1999.90;999.90;;;20.80;68.70;;;;;;6314060;22;20011;-74
2023/06/04 08:00:45;;;;;;;1999.90;999.90;;;20.80;68.80;;;;;;6311901;22;20382;-74
2023/06/04 08:03:11;;;;;;;1999.90;999.90;;;20.90;68.50;;;;;;6313516;22;20074;-74
2023/06/04 08:05:37;;;;;;;1999.90;999.90;;;21.10;68.70;;;;;;6314113;22;20007;-75
2023/06/04 08:08:06;;;;;;;1999.90;999.90;;;21.30;66.70;;;;;;6314425;22;20031;-74
2023/06/04 08:10:31;;;;;;;1999.90;999.90;;;21.40;67.40;;;;;;6286253;22;20455;-75
2023/06/04 08:12:57;;;;;;;1999.90;999.90;;;21.50;67.40;;;;;;6285908;22;20019;-74
2023/06/04 08:15:23;;;;;;;1999.90;999.90;;;21.70;67.70;;;;;;6313831;22;20035;-76
2023/06/04 08:17:49;;;;;;;1999.90;999.90;;;21.80;66.70;;;;;;6313470;22;20015;-77
2023/06/04 08:20:14;;;;;;;1999.90;999.90;;;21.90;67.60;;;;;;6314209;22;20000;-76
2023/06/04 08:22:40;;;;;;;1999.90;999.90;;;21.90;66.60;;;;;;6285721;22;20020;-75
2023/06/04 08:25:06;;;;;;;1999.90;999.90;;;21.80;66.60;;;;;;6313655;22;20000;-76
2023/06/04 08:27:37;;;;;;;1999.90;999.90;;;21.80;67.30;;;;;;6285018;22;20447;-73
2023/06/04 08:30:03;;;;;;;1999.90;999.90;;;22.00;66.80;;;;;;6314747;22;20395;-74
2023/06/04 08:32:29;;;;;;;1999.90;999.90;;;22.10;67.20;;;;;;6314930;22;20007;-73
2023/06/04 08:34:55;;;;;;;1999.90;999.90;;;22.20;68.80;;;;;;6340393;22;20078;-76
2023/06/04 08:37:20;;;;;;;1999.90;999.90;;;22.60;64.70;;;;;;6316381;22;20008;-73
2023/06/04 08:39:46;;;;;;;1999.90;999.90;;;22.70;64.80;;;;;;6340176;22;20078;-74
2023/06/04 08:42:31;;;;;;;1999.90;999.90;;;22.50;65.20;;;;;;6314802;22;20077;-75
2023/06/04 08:44:58;;;;;;;1999.90;999.90;;;22.80;65.30;;;;;;6314954;22;20007;-72
2023/06/04 08:47:26;;;;;;;1999.90;999.90;;;23.10;65.50;;;;;;6315201;22;20008;-75
2023/06/04 08:49:52;;;;;;;1999.90;999.90;;;23.00;65.30;;;;;;6313991;22;20004;-73
2023/06/04 08:52:21;;;;;;;1999.90;999.90;;;23.00;66.50;;;;;;6314175;22;20020;-73
2023/06/04 08:54:50;;;;;;;1999.90;999.90;;;22.90;64.50;;;;;;6314766;22;20994;-75
2023/06/04 08:57:17;;;;;;;1999.90;999.90;;;23.00;65.00;;;;;;6314290;22;20386;-73
2023/06/04 08:59:44;;;;;;;1999.90;999.90;;;23.20;66.10;;;;;;6314869;22;20004;-75
2023/06/04 09:02:11;;;;;;;1999.90;999.90;;;23.10;64.20;;;;;;6314054;22;20008;-73
2023/06/04 09:04:38;;;;;;;1999.90;999.90;;;23.20;66.20;;;;;;6314456;22;20000;-73
2023/06/04 09:07:05;;;;;;;1999.90;999.90;;;23.30;64.20;;;;;;6314790;22;20089;-74
2023/06/04 09:09:31;;;;;;;1999.90;999.90;;;23.50;62.50;;;;;;6314642;22;20023;-73
2023/06/04 09:11:57;;;;;;;1999.90;999.90;;;23.80;64.70;;;;;;6313994;22;20023;-74
2023/06/04 09:14:23;;;;;;;1999.90;999.90;;;23.60;64.30;;;;;;6314716;22;20004;-73
2023/06/04 09:16:54;;;;;;;1999.90;999.90;;;23.80;62.30;;;;;;6314569;22;20043;-74
2023/06/04 09:19:20;;;;;;;1999.90;999.90;;;23.90;63.70;;;;;;6314585;22;20406;-73
2023/06/04 09:21:53;;;;;;;1999.90;999.90;;;24.00;63.70;;;;;;6313850;22;20012;-73
2023/06/04 09:24:20;;;;;;;1999.90;999.90;;;24.10;62.50;;;;;;6314743;22;20004;-73
2023/06/04 09:26:46;;;;;;;1999.90;999.90;;;24.20;63.60;;;;;;6313818;22;20008;-80
2023/06/04 09:29:12;;;;;;;1999.90;999.90;;;24.40;62.30;;;;;;6285375;22;20008;-75
2023/06/04 09:31:39;;;;;;;1999.90;999.90;;;24.40;63.00;;;;;;6311968;22;20006;-76
2023/06/04 09:34:05;;;;;;;1999.90;999.90;;;24.20;61.50;;;;;;6314683;22;20008;-74
2023/06/04 09:36:37;;;;;;;1999.90;999.90;;;24.00;61.80;;;;;;6314581;22;20004;-74
2023/06/04 09:39:04;;;;;;;1999.90;999.90;;;24.20;61.20;;;;;;6314602;22;20015;-75
2023/06/04 09:41:30;;;;;;;1999.90;999.90;;;24.30;63.00;;;;;;6286459;22;20390;-80
2023/06/04 09:44:05;;;;;;;1999.90;999.90;;;24.50;63.20;;;;;;6314435;22;20004;-75
2023/06/04 09:46:31;;;;;;;1999.90;999.90;;;24.80;59.60;;;;;;6314406;22;20047;-76
2023/06/04 09:49:01;;;;;;;1999.90;999.90;;;25.00;63.20;;;;;;6314393;22;20307;-73
2023/06/04 09:51:28;;;;;;;1999.90;999.90;;;25.10;59.50;;;;;;6286117;22;20082;-74
2023/06/04 09:53:58;;;;;;;1999.90;999.90;;;25.40;58.80;;;;;;6314209;22;20042;-74
2023/06/04 09:56:24;;;;;;;1999.90;999.90;;;25.30;55.90;;;;;;6314709;22;20321;-74
2023/06/04 09:58:53;;;;;;;1999.90;999.90;;;25.20;56.70;;;;;;6286696;22;20030;-74
2023/06/04 10:01:20;;;;;;;1999.90;999.90;;;25.10;57.80;;;;;;6285736;22;20003;-75
2023/06/04 10:03:49;;;;;;;1999.90;999.90;;;25.40;61.70;;;;;;6314005;22;20014;-74
2023/06/04 10:06:18;;;;;;;1999.90;999.90;;;25.80;57.00;;;;;;6314439;22;20439;-75
2023/06/04 10:08:46;;;;;;;1999.90;999.90;;;25.80;55.60;;;;;;6286739;22;20462;-74
2023/06/04 10:11:13;;;;;;;1999.90;999.90;;;25.90;53.80;;;;;;6314125;22;20008;-75
2023/06/04 10:13:50;;;;;;;1999.90;999.90;;;26.00;54.60;;;;;;6314088;22;20015;-74
2023/06/04 10:16:16;;;;;;;1999.90;999.90;;;25.50;56.60;;;;;;6314410;22;20007;-75
2023/06/04 10:18:43;;;;;;;1999.90;999.90;;;25.90;55.90;;;;;;6314365;22;20495;-73
2023/06/04 10:21:10;;;;;;;1999.90;999.90;;;26.40;54.20;;;;;;6314411;22;20031;-72
2023/06/04 10:23:36;;;;;;;1999.90;999.90;;;26.40;53.70;;;;;;6314030;22;20004;-73
2023/06/04 10:26:02;;;;;;;1999.90;999.90;;;26.60;53.40;;;;;;6315018;22;20008;-73
2023/06/04 10:28:28;;;;;;;1999.90;999.90;;;26.50;52.70;;;;;;6315314;22;20023;-76
2023/06/04 10:30:53;;;;;;;1999.90;999.90;;;26.70;51.10;;;;;;6315666;22;19999;-78
2023/06/04 10:33:23;;;;;;;1999.90;999.90;;;27.10;51.50;;;;;;6314276;22;20012;-76
2023/06/04 10:35:53;;;;;;;1999.90;999.90;;;26.80;52.90;;;;;;6314800;22;20436;-75
2023/06/04 10:38:21;;;;;;;1999.90;999.90;;;27.00;50.70;;;;;;6286645;22;20012;-74
2023/06/04 10:40:47;;;;;;;1999.90;999.90;;;27.10;50.20;;;;;;6314030;22;20003;-76
2023/06/04 10:43:15;;;;;;;1999.90;999.90;;;26.90;51.30;;;;;;6313696;22;20008;-75
2023/06/04 10:45:41;;;;;;;1999.90;999.90;;;26.50;51.80;;;;;;6314328;22;20007;-75
2023/06/04 10:48:09;;;;;;;1999.90;999.90;;;26.70;52.00;;;;;;6313927;22;20332;-78
2023/06/04 10:50:46;;;;;;;1999.90;999.90;;;26.70;53.10;;;;;;6314133;22;20007;-76
2023/06/04 10:53:12;;;;;;;1999.90;999.90;;;26.50;53.10;;;;;;6314565;22;20519;-75
2023/06/04 10:55:45;;;;;;;1999.90;999.90;;;26.70;53.10;;;;;;6314225;22;20020;-78
2023/06/04 10:58:10;;;;;;;1999.90;999.90;;;27.10;52.10;;;;;;6314232;22;20008;-74
2023/06/04 11:00:40;;;;;;;1999.90;999.90;;;26.90;52.40;;;;;;6314212;22;20014;-72
2023/06/04 11:03:07;;;;;;;1999.90;999.90;;;26.70;51.70;;;;;;6313342;22;20328;-72
2023/06/04 11:05:44;;;;;;;1999.90;999.90;;;26.80;54.80;;;;;;6314171;22;20070;-76
2023/06/04 11:08:12;;;;;;;1999.90;999.90;;;26.80;51.00;;;;;;6314358;22;20014;-73
2023/06/04 11:10:39;;;;;;;1999.90;999.90;;;26.60;53.50;;;;;;6313885;22;20000;-73
2023/06/04 11:13:05;;;;;;;1999.90;999.90;;;27.00;52.80;;;;;;6311770;22;20046;-72
2023/06/04 11:15:38;;;;;;;1999.90;999.90;;;27.30;52.00;;;;;;6315338;22;20015;-74
2023/06/04 11:18:05;;;;;;;1999.90;999.90;;;27.50;51.70;;;;;;6313848;22;20004;-76
2023/06/04 11:20:30;;;;;;;1999.90;999.90;;;27.90;56.00;;;;;;6313832;22;20010;-75
2023/06/04 11:22:58;;;;;;;1999.90;999.90;;;27.50;51.40;;;;;;6313272;22;20087;-76
2023/06/04 11:25:24;;;;;;;1999.90;999.90;;;27.10;50.70;;;;;;6313952;22;20027;-75
2023/06/04 11:27:52;;;;;;;1999.90;999.90;;;27.30;51.10;;;;;;6314128;22;20459;-76
2023/06/04 11:30:18;;;;;;;1999.90;999.90;;;26.90;50.80;;;;;;6313941;22;20026;-76
2023/06/04 11:32:44;;;;;;;1999.90;999.90;;;27.00;50.60;;;;;;6313178;22;20016;-76
2023/06/04 11:35:11;;;;;;;1999.90;999.90;;;26.80;53.70;;;;;;6313934;22;20011;-75
2023/06/04 11:37:37;;;;;;;1999.90;999.90;;;27.10;52.30;;;;;;6313832;22;20012;-75
2023/06/04 11:40:06;;;;;;;1999.90;999.90;;;27.30;51.60;;;;;;6313732;22;20004;-73
2023/06/04 11:42:32;;;;;;;1999.90;999.90;;;27.50;50.90;;;;;;6285457;22;20011;-72
2023/06/04 11:44:57;;;;;;;1999.90;999.90;;;27.70;51.90;;;;;;6285668;22;20012;-72
2023/06/04 11:47:24;;;;;;;1999.90;999.90;;;27.90;49.70;;;;;;6313603;22;20008;-72
2023/06/04 11:49:56;;;;;;;1999.90;999.90;;;27.90;49.80;;;;;;6313800;22;20079;-72
2023/06/04 11:52:22;;;;;;;1999.90;999.90;;;28.10;49.90;;;;;;6312812;22;20016;-71
2023/06/04 11:54:48;;;;;;;1999.90;999.90;;;27.90;50.30;;;;;;6313755;22;20304;-74
2023/06/04 11:57:13;;;;;;;1999.90;999.90;;;27.30;49.50;;;;;;6286032;22;20015;-72